Time;durP1;ratioP1;P1;durP2;ratioP2;P2;SDS_P1;SDS_P2;PMS_P1;PMS_P2;Temp;Humidity;BMP_temperature;BMP_pressure;BME280_temperature;BME280_humidity;BME280_pressure;Samples;Min_cycle;Max_cycle;Signal;HPM_P1;HPM_P2
2023/09/17 00:02:27;;;;;;;4.47;4.05;;;22.40;64.60;;;24.15;48.75;97432.97;5018314;28;20034;-64
2023/09/17 00:04:55;;;;;;;7.20;4.60;;;22.40;64.60;;;24.08;48.83;97432.34;5016504;28;20069;-64
2023/09/17 00:07:22;;;;;;;4.43;3.72;;;22.30;65.70;;;24.04;48.75;97442.06;5014579;28;20034;-64
2023/09/17 00:09:50;;;;;;;4.80;4.30;;;22.30;64.90;;;23.98;48.52;97433.88;5016892;28;20390;-64
2023/09/17 00:12:19;;;;;;;6.30;4.60;;;22.20;64.60;;;23.97;48.69;97439.56;5019244;28;20038;-63
2023/09/17 00:14:48;;;;;;;6.32;5.38;;;22.20;65.50;;;23.92;48.73;97434.91;5017537;28;20046;-63
2023/09/17 00:17:16;;;;;;;4.28;3.88;;;22.20;64.70;;;23.92;49.15;97434.91;5014294;28;20053;-64
2023/09/17 00:19:43;;;;;;;4.88;4.35;;;22.20;64.60;;;23.90;48.80;97431.56;5014761;28;20046;-64
2023/09/17 00:22:14;;;;;;;4.78;4.18;;;22.20;64.60;;;23.90;48.94;97430.75;5017779;28;20052;-65
2023/09/17 00:24:42;;;;;;;5.05;4.53;;;22.20;64.40;;;23.89;48.88;97429.94;5018506;28;20211;-64
2023/09/17 00:27:09;;;;;;;5.70;5.00;;;22.20;64.30;;;23.89;48.58;97429.94;5018970;28;20038;-64
2023/09/17 00:29:38;;;;;;;4.22;3.83;;;22.20;64.20;;;23.91;48.70;97429.69;5018811;28;20478;-65
2023/09/17 00:32:06;;;;;;;5.68;4.55;;;22.20;64.00;;;23.90;48.85;97423.41;5036824;28;20432;-64
2023/09/17 00:34:33;;;;;;;6.30;4.65;;;22.30;64.00;;;23.93;48.81;97430.28;5021341;28;20042;-64
2023/09/17 00:37:01;;;;;;;5.10;4.60;;;22.30;63.70;;;23.92;48.72;97424.03;5027866;27;20061;-64
2023/09/17 00:39:29;;;;;;;6.82;4.60;;;22.40;63.40;;;23.94;48.68;97446.34;5035034;28;20056;-64
2023/09/17 00:41:57;;;;;;;5.30;4.47;;;22.40;63.30;;;23.84;49.04;97457.06;5020651;28;20410;-64
2023/09/17 00:44:24;;;;;;;7.40;5.25;;;22.30;64.20;;;23.73;49.52;97436.22;5019880;28;20049;-64
2023/09/17 00:46:52;;;;;;;6.97;4.88;;;22.10;65.90;;;23.63;49.57;97442.31;5019434;28;20052;-64
2023/09/17 00:49:20;;;;;;;4.90;4.18;;;22.00;65.90;;;23.57;49.81;97446.88;5018676;28;20499;-64
2023/09/17 00:51:48;;;;;;;5.07;4.22;;;21.90;66.30;;;23.54;49.74;97449.28;5031263;28;20046;-64
2023/09/17 00:54:16;;;;;;;4.88;4.38;;;21.80;66.40;;;23.49;49.99;97447.28;5003531;28;20041;-64
2023/09/17 00:56:44;;;;;;;6.03;4.32;;;21.90;66.40;;;23.47;49.96;97452.16;5011796;28;20045;-63
2023/09/17 00:59:12;;;;;;;6.15;4.75;;;21.80;66.90;;;23.44;50.20;97454.53;5033116;28;20050;-64
2023/09/17 01:01:42;;;;;;;6.20;4.93;;;21.70;67.40;;;23.38;50.62;97448.22;5024146;28;20409;-64
2023/09/17 01:04:13;;;;;;;5.88;4.85;;;21.70;67.90;;;23.34;50.55;97444.34;5012060;28;20052;-64
2023/09/17 01:06:42;;;;;;;5.47;4.90;;;21.60;68.30;;;23.29;50.83;97447.00;5020602;28;20088;-64
2023/09/17 01:09:11;;;;;;;7.10;5.13;;;21.60;68.60;;;23.26;50.90;97442.88;5000346;28;20049;-64
2023/09/17 01:11:39;;;;;;;6.95;5.18;;;21.50;68.80;;;23.22;51.06;97443.63;5016984;28;20053;-64
2023/09/17 01:14:13;;;;;;;6.45;5.05;;;21.40;69.20;;;23.18;51.12;97446.81;5035782;28;20045;-64
2023/09/17 01:16:45;;;;;;;5.72;4.85;;;21.40;69.10;;;23.14;51.25;97439.41;5020885;28;20049;-64
2023/09/17 01:19:33;;;;;;;5.47;4.97;;;21.40;69.50;;;23.08;51.34;97443.94;5053219;28;20052;-63
2023/09/17 01:22:11;;;;;;;9.15;4.95;;;21.40;70.00;;;23.10;51.23;97441.00;5001723;28;20060;-64
2023/09/17 01:24:54;;;;;;;7.30;4.75;;;21.40;69.50;;;23.10;51.44;97449.13;5018160;28;20520;-64
2023/09/17 01:27:24;;;;;;;5.05;4.53;;;21.40;69.20;;;23.09;51.48;97447.47;5016136;28;20053;-64
2023/09/17 01:29:53;;;;;;;6.40;4.57;;;21.40;69.40;;;23.08;51.41;97438.50;5011647;28;20053;-64
2023/09/17 01:32:21;;;;;;;5.57;4.40;;;21.40;69.30;;;23.09;51.58;97437.47;5021141;28;20040;-64
2023/09/17 01:34:53;;;;;;;4.93;4.30;;;21.40;69.20;;;23.09;51.48;97442.03;5004080;28;20046;-64
2023/09/17 01:37:30;;;;;;;5.00;4.40;;;21.40;69.00;;;23.08;51.20;97441.22;5021696;28;20045;-64
2023/09/17 01:40:10;;;;;;;11.43;4.93;;;21.40;69.10;;;23.08;51.22;97445.84;4995362;28;20097;-64
2023/09/17 01:42:45;;;;;;;5.40;4.28;;;21.40;69.30;;;23.07;51.56;97450.47;5005361;28;20050;-64
2023/09/17 01:45:14;;;;;;;5.72;4.53;;;21.40;69.30;;;23.06;51.54;97446.09;5023634;28;20053;-64
2023/09/17 01:47:44;;;;;;;5.00;4.32;;;21.40;69.30;;;23.06;51.67;97453.41;5023642;28;20052;-64
2023/09/17 01:50:15;;;;;;;7.15;4.88;;;21.40;69.00;;;23.06;51.58;97458.84;5012871;28;20052;-64
2023/09/17 01:52:44;;;;;;;5.07;4.57;;;21.40;69.00;;;23.06;51.64;97461.56;5019449;28;20037;-64
2023/09/17 01:55:12;;;;;;;6.32;4.82;;;21.40;69.20;;;23.05;51.49;97462.63;5053665;28;20049;-64
2023/09/17 01:57:42;;;;;;;8.25;5.13;;;21.40;69.40;;;23.04;51.70;97463.69;5027266;28;20062;-64
2023/09/17 02:00:19;;;;;;;5.57;4.32;;;21.30;69.70;;;23.03;51.82;97465.59;5024849;28;20541;-64
2023/09/17 02:02:49;;;;;;;5.82;4.50;;;21.30;69.80;;;23.02;51.91;97460.38;5019213;28;20046;-64
2023/09/17 02:05:20;;;;;;;5.45;4.60;;;21.30;70.00;;;22.99;51.94;97459.81;5004651;28;20409;-64
2023/09/17 02:07:48;;;;;;;5.25;4.47;;;21.30;70.00;;;22.98;51.75;97457.31;5011379;28;20041;-64
2023/09/17 02:10:15;;;;;;;5.95;4.15;;;21.30;69.80;;;22.97;52.00;97461.94;5020713;28;20045;-64
2023/09/17 02:12:43;;;;;;;6.80;4.88;;;21.30;69.90;;;22.97;52.09;97459.22;5012730;28;20049;-64
2023/09/17 02:15:11;;;;;;;6.97;4.25;;;21.30;69.80;;;22.97;51.97;97455.66;5017338;28;20073;-64
2023/09/17 02:17:39;;;;;;;5.10;4.43;;;21.30;69.70;;;22.97;51.94;97453.78;5008909;28;20056;-64
2023/09/17 02:20:11;;;;;;;5.18;4.68;;;21.30;69.90;;;22.96;51.76;97457.56;5018521;28;20053;-64
2023/09/17 02:22:40;;;;;;;7.57;4.45;;;21.30;70.00;;;22.96;51.80;97459.47;5019445;28;20052;-64
2023/09/17 02:25:09;;;;;;;5.05;4.53;;;21.30;70.00;;;22.96;51.86;97454.84;5008176;28;20046;-64
2023/09/17 02:27:38;;;;;;;4.97;4.40;;;21.30;69.90;;;22.96;51.88;97454.84;5016160;28;20384;-64
2023/09/17 02:30:08;;;;;;;4.75;4.25;;;21.30;69.80;;;22.96;51.94;97454.84;5017759;28;20053;-64
2023/09/17 02:32:37;;;;;;;4.95;3.80;;;21.30;69.60;;;22.94;51.99;97457.00;5012471;28;20049;-64
2023/09/17 02:35:07;;;;;;;5.93;4.93;;;21.20;69.80;;;22.93;51.96;97454.50;5017975;28;20493;-64
2023/09/17 02:37:35;;;;;;;5.70;5.07;;;21.20;69.80;;;22.91;51.78;97457.47;5013919;28;20041;-64
2023/09/17 02:40:08;;;;;;;6.20;4.65;;;21.20;69.70;;;22.91;51.87;97452.03;5016015;28;20046;-64
2023/09/17 02:42:37;;;;;;;6.10;4.68;;;21.20;69.60;;;22.89;51.66;97447.94;5020433;28;20038;-64
2023/09/17 02:45:06;;;;;;;5.93;4.55;;;21.20;69.60;;;22.87;52.02;97445.47;5017156;28;20042;-64
2023/09/17 02:47:33;;;;;;;4.38;3.97;;;21.20;69.70;;;22.86;52.01;97449.25;5033984;27;20050;-64
2023/09/17 02:50:03;;;;;;;5.45;4.95;;;21.10;69.70;;;22.83;52.05;97449.72;5014261;28;20054;-64
2023/09/17 02:52:31;;;;;;;5.00;4.53;;;21.10;69.80;;;22.78;51.88;97450.47;5018619;28;20049;-64
2023/09/17 02:54:58;;;;;;;5.28;4.78;;;21.10;70.10;;;22.76;52.01;97459.91;5027294;28;20061;-64
2023/09/17 02:57:26;;;;;;;4.75;4.25;;;21.10;70.20;;;22.72;52.28;97456.88;5015365;28;20050;-64
2023/09/17 02:59:54;;;;;;;4.97;4.47;;;21.00;70.30;;;22.68;52.34;97460.31;5027753;28;20061;-64
2023/09/17 03:02:21;;;;;;;5.18;4.50;;;20.90;70.50;;;22.65;52.28;97458.91;5017401;28;20037;-64
2023/09/17 03:04:52;;;;;;;5.45;4.68;;;20.90;70.70;;;22.63;52.23;97462.94;5019055;28;20042;-64
2023/09/17 03:07:20;;;;;;;6.78;4.65;;;20.90;70.80;;;22.61;52.45;97461.28;5034020;28;20077;-63
2023/09/17 03:09:49;;;;;;;4.93;4.05;;;20.90;70.70;;;22.58;52.29;97464.47;5018092;28;20046;-64
2023/09/17 03:12:16;;;;;;;5.70;4.75;;;20.80;70.80;;;22.53;52.30;97471.72;5017122;28;20054;-64
2023/09/17 03:14:44;;;;;;;6.15;4.70;;;20.80;71.20;;;22.53;52.51;97474.44;5022777;28;20038;-64
2023/09/17 03:17:12;;;;;;;5.75;5.13;;;20.80;71.00;;;22.52;52.32;97470.88;5017390;28;20057;-64
2023/09/17 03:19:40;;;;;;;5.18;4.68;;;20.80;70.70;;;22.52;52.54;97462.75;5019745;28;20052;-64
2023/09/17 03:22:08;;;;;;;4.53;4.13;;;20.80;70.60;;;22.49;52.64;97467.81;5026629;28;20064;-64
2023/09/17 03:24:37;;;;;;;4.72;4.25;;;20.80;70.80;;;22.47;52.28;97467.25;5000634;28;20053;-64
2023/09/17 03:27:11;;;;;;;6.18;4.55;;;20.80;70.80;;;22.47;52.42;97472.66;5016584;28;20050;-64
2023/09/17 03:29:39;;;;;;;5.55;4.90;;;20.80;70.80;;;22.44;52.17;97465.03;5019681;28;20052;-64
2023/09/17 03:32:07;;;;;;;5.80;5.03;;;20.80;70.70;;;22.43;52.43;97461.50;5016796;28;20523;-64
2023/09/17 03:34:35;;;;;;;5.95;4.30;;;20.80;70.80;;;22.38;52.64;97456.78;5018643;28;20042;-64
2023/09/17 03:37:03;;;;;;;6.78;4.65;;;20.70;71.00;;;22.38;52.75;97461.41;5017672;28;20049;-64
2023/09/17 03:39:31;;;;;;;5.18;4.38;;;20.70;71.00;;;22.35;52.79;97453.72;5034047;28;20516;-64
2023/09/17 03:41:58;;;;;;;5.22;4.72;;;20.70;71.40;;;22.34;52.83;97463.75;5018211;28;20060;-64
2023/09/17 03:44:27;;;;;;;5.47;4.55;;;20.70;71.50;;;22.34;52.98;97458.34;5052501;28;20045;-64
2023/09/17 03:46:54;;;;;;;4.90;4.30;;;20.70;71.30;;;22.31;52.83;97456.09;5027858;28;20056;-64
2023/09/17 03:49:26;;;;;;;5.40;4.90;;;20.60;71.40;;;22.30;52.96;97450.94;5016308;28;20045;-64
2023/09/17 03:51:54;;;;;;;5.20;4.70;;;20.60;71.40;;;22.28;52.81;97451.16;5014903;28;20038;-64
2023/09/17 03:54:22;;;;;;;5.53;4.53;;;20.60;71.30;;;22.25;52.65;97454.34;5017166;28;20416;-64
2023/09/17 03:56:49;;;;;;;5.18;3.97;;;20.60;71.40;;;22.24;53.07;97447.25;5018049;28;20042;-64
2023/09/17 03:59:17;;;;;;;5.15;4.43;;;20.60;71.40;;;22.27;52.84;97454.13;5017682;28;20065;-64
2023/09/17 04:01:46;;;;;;;5.10;4.60;;;20.60;71.10;;;22.26;52.92;97458.72;5026442;28;20045;-64
2023/09/17 04:04:13;;;;;;;5.07;4.38;;;20.70;71.00;;;22.26;52.77;97449.78;5004446;28;20064;-64
2023/09/17 04:06:41;;;;;;;6.03;4.53;;;20.60;70.90;;;22.26;52.92;97452.50;5031171;28;20441;-64
2023/09/17 04:09:09;;;;;;;5.72;4.55;;;20.70;71.00;;;22.25;52.70;97453.53;5021248;28;20432;-64
2023/09/17 04:11:37;;;;;;;5.05;4.55;;;20.60;71.10;;;22.25;52.78;97456.25;5025492;28;20052;-64
2023/09/17 04:14:06;;;;;;;5.45;4.85;;;20.70;71.10;;;22.23;52.88;97457.25;5021939;28;20041;-64
2023/09/17 04:16:34;;;;;;;5.60;5.10;;;20.60;71.20;;;22.24;53.04;97455.41;5031675;27;20049;-64
2023/09/17 04:19:02;;;;;;;5.18;4.68;;;20.60;71.30;;;22.21;52.80;97458.56;5020964;28;20050;-64
2023/09/17 04:21:30;;;;;;;5.32;4.40;;;20.60;71.30;;;22.14;52.77;97450.59;5012844;28;20054;-64
2023/09/17 04:23:58;;;;;;;4.68;4.20;;;20.50;71.70;;;22.11;53.04;97453.78;5021811;28;20068;-64
2023/09/17 04:26:26;;;;;;;5.35;4.05;;;20.40;71.70;;;22.06;53.04;97450.94;5019113;28;20038;-64
2023/09/17 04:28:54;;;;;;;5.43;4.25;;;20.40;71.90;;;22.06;53.34;97459.06;5028062;28;20041;-64
2023/09/17 04:31:22;;;;;;;5.30;4.68;;;20.40;71.80;;;22.05;53.04;97457.44;5020425;28;20053;-64
2023/09/17 04:33:51;;;;;;;5.70;4.63;;;20.40;71.50;;;22.03;53.06;97460.41;5012422;28;20041;-64
2023/09/17 04:36:19;;;;;;;4.75;4.15;;;20.40;71.40;;;22.05;53.05;97465.59;5036513;27;20444;-64
2023/09/17 04:38:47;;;;;;;6.60;4.68;;;20.40;71.70;;;22.03;53.17;97463.09;5001371;28;20053;-64
2023/09/17 04:41:15;;;;;;;7.43;5.35;;;20.40;71.70;;;22.01;53.45;97469.84;5035408;28;20528;-64
2023/09/17 04:43:43;;;;;;;6.32;4.47;;;20.40;71.70;;;21.99;53.42;97471.97;5021678;27;20060;-65
2023/09/17 04:46:12;;;;;;;5.80;4.53;;;20.30;72.00;;;21.96;53.46;97475.94;5029198;27;20421;-65
2023/09/17 04:48:40;;;;;;;5.90;4.68;;;20.20;72.00;;;21.93;53.41;97473.75;5023301;28;20103;-65
2023/09/17 04:51:07;;;;;;;5.05;4.53;;;20.20;72.10;;;21.92;53.56;97479.38;5020479;28;20057;-65
2023/09/17 04:53:35;;;;;;;7.05;4.88;;;20.20;72.30;;;21.89;53.34;97478.00;5026112;28;20041;-64
2023/09/17 04:56:03;;;;;;;4.97;4.47;;;20.20;72.30;;;21.83;53.34;97485.19;5018775;28;20257;-64
2023/09/17 04:58:34;;;;;;;5.13;4.50;;;20.10;72.60;;;21.80;53.73;97493.78;5005216;28;20534;-64
2023/09/17 05:01:06;;;;;;;5.07;4.47;;;20.00;73.10;;;21.76;53.79;97489.06;5029821;27;20080;-65
2023/09/17 05:03:34;;;;;;;5.55;4.80;;;20.00;73.40;;;21.73;53.79;97490.38;5035981;28;20041;-64
2023/09/17 05:06:02;;;;;;;6.63;4.50;;;19.90;73.70;;;21.68;54.06;97489.44;5026817;28;20069;-65
2023/09/17 05:08:31;;;;;;;5.35;4.75;;;19.90;74.00;;;21.69;54.20;97488.38;5024788;28;20045;-64
2023/09/17 05:10:59;;;;;;;6.10;4.43;;;20.00;73.80;;;21.68;53.76;97482.13;5016990;28;20171;-64
2023/09/17 05:13:27;;;;;;;7.00;5.10;;;20.00;73.60;;;21.67;53.90;97479.66;5034906;28;20046;-65
2023/09/17 05:15:56;;;;;;;5.53;4.50;;;19.90;73.60;;;21.68;54.14;97486.72;5029711;27;20046;-65
2023/09/17 05:18:24;;;;;;;5.30;4.40;;;20.00;73.50;;;21.68;54.20;97486.72;5017833;28;20042;-64
2023/09/17 05:20:53;;;;;;;6.25;5.55;;;20.00;73.60;;;21.67;54.46;97496.72;5014842;28;20054;-64
2023/09/17 05:23:23;;;;;;;6.82;4.90;;;20.00;74.10;;;21.64;54.38;97499.91;5017852;28;20064;-64
2023/09/17 05:25:56;;;;;;;5.07;4.57;;;20.00;74.60;;;21.62;54.89;97496.63;5001286;28;20054;-64
2023/09/17 05:28:27;;;;;;;6.88;5.30;;;20.00;74.90;;;21.64;54.63;97499.91;5034506;28;20507;-64
2023/09/17 05:30:56;;;;;;;5.45;4.95;;;19.90;74.70;;;21.66;55.06;97500.50;5014861;28;20033;-64
2023/09/17 05:33:24;;;;;;;7.93;5.07;;;20.00;74.80;;;21.66;54.89;97502.41;5033875;28;20065;-64
2023/09/17 05:35:57;;;;;;;6.60;4.60;;;20.00;74.60;;;21.69;54.64;97508.13;5023654;28;20520;-64
2023/09/17 05:38:27;;;;;;;6.25;4.20;;;20.10;74.60;;;21.73;54.80;97509.34;5019591;28;20057;-64
2023/09/17 05:40:56;;;;;;;5.50;4.50;;;20.10;74.30;;;21.75;54.81;97512.66;5004726;28;20045;-64
2023/09/17 05:43:25;;;;;;;7.05;5.28;;;20.20;74.50;;;21.73;55.00;97512.06;5026970;28;20056;-64
2023/09/17 05:45:56;;;;;;;5.68;5.00;;;20.20;75.10;;;21.75;55.23;97520.78;5015933;28;20336;-64
2023/09/17 05:48:29;;;;;;;5.22;4.63;;;20.20;74.90;;;21.79;55.07;97518.38;5018190;28;20042;-64
2023/09/17 05:50:58;;;;;;;5.75;4.50;;;20.10;75.10;;;21.78;55.01;97525.69;5019232;28;20046;-64
2023/09/17 05:53:30;;;;;;;5.90;4.38;;;20.20;74.90;;;21.79;54.99;97519.22;5001076;28;20425;-64
2023/09/17 05:55:58;;;;;;;7.57;4.63;;;20.20;74.90;;;21.80;55.39;97523.56;5025275;28;20424;-64
2023/09/17 05:58:26;;;;;;;6.68;4.82;;;20.20;75.10;;;21.82;54.91;97534.19;5019191;28;20257;-64
2023/09/17 06:00:54;;;;;;;5.40;4.68;;;20.30;74.90;;;21.85;55.10;97533.72;5020309;28;20134;-64
2023/09/17 06:03:22;;;;;;;5.35;4.47;;;20.30;75.00;;;21.88;55.38;97527.81;5017409;28;20094;-64
2023/09/17 06:05:54;;;;;;;5.38;4.88;;;20.30;74.80;;;21.94;55.36;97528.75;5007500;28;20041;-64
2023/09/17 06:08:22;;;;;;;5.40;4.13;;;20.40;74.50;;;21.99;55.19;97526.97;5019581;28;20049;-64
2023/09/17 06:10:51;;;;;;;5.28;4.57;;;20.50;74.40;;;22.07;54.90;97522.28;5019174;28;20111;-64
2023/09/17 06:13:19;;;;;;;10.00;4.90;;;20.60;74.10;;;22.14;55.21;97529.22;5001804;28;20060;-64
2023/09/17 06:15:47;;;;;;;5.10;4.57;;;20.70;74.00;;;22.22;54.91;97520.69;5005165;28;20049;-64
2023/09/17 06:18:16;;;;;;;6.90;5.13;;;20.80;73.70;;;22.29;54.88;97520.59;5018878;28;20393;-64
2023/09/17 06:20:45;;;;;;;6.35;4.95;;;20.90;73.40;;;22.36;54.95;97521.28;5028539;27;20054;-64
2023/09/17 06:23:13;;;;;;;5.72;4.00;;;21.00;73.00;;;22.44;54.69;97516.56;5034717;28;20060;-64
2023/09/17 06:25:41;;;;;;;5.70;4.80;;;21.00;72.70;;;22.47;54.72;97516.06;5035598;28;20049;-64
2023/09/17 06:28:09;;;;;;;7.57;4.13;;;21.10;72.60;;;22.53;54.37;97524.06;5018602;28;20049;-64
2023/09/17 06:30:37;;;;;;;5.95;4.50;;;21.20;72.30;;;22.58;54.53;97518.72;5017337;27;20050;-66
2023/09/17 06:33:05;;;;;;;7.03;4.10;;;21.30;72.10;;;22.64;54.44;97525.09;5009423;28;20053;-66
2023/09/17 06:35:34;;;;;;;4.68;4.18;;;21.30;71.80;;;22.69;54.45;97525.19;5018235;28;20438;-65
2023/09/17 06:38:02;;;;;;;4.95;4.45;;;21.40;71.50;;;22.72;53.89;97530.16;5023377;28;20304;-66
2023/09/17 06:40:30;;;;;;;5.22;4.13;;;21.40;71.10;;;22.78;54.00;97522.94;5017371;28;20052;-66
2023/09/17 06:42:57;;;;;;;5.18;4.60;;;21.50;71.00;;;22.85;54.20;97517.34;5022662;28;20500;-66
2023/09/17 06:45:25;;;;;;;5.47;4.13;;;21.60;70.90;;;22.90;53.95;97515.53;5026899;28;20045;-66
2023/09/17 06:47:53;;;;;;;5.18;4.68;;;21.60;70.80;;;22.94;53.60;97514.00;5019492;28;20497;-66
2023/09/17 06:50:20;;;;;;;6.40;3.83;;;21.70;70.30;;;22.96;53.48;97517.28;5018692;28;20042;-66
2023/09/17 06:52:48;;;;;;;5.90;3.95;;;21.80;69.90;;;23.02;53.46;97518.19;5015661;28;20038;-66
2023/09/17 06:55:16;;;;;;;6.50;4.15;;;21.80;69.60;;;23.07;53.17;97518.34;5015523;28;20046;-66
2023/09/17 06:57:43;;;;;;;6.72;4.18;;;21.90;69.40;;;23.11;53.56;97519.47;5016079;28;20049;-66
2023/09/17 07:00:11;;;;;;;4.57;3.83;;;21.90;69.20;;;23.15;53.13;97523.34;5016051;28;20042;-66
2023/09/17 07:02:39;;;;;;;5.28;4.65;;;21.90;69.00;;;23.21;53.20;97518.03;5017350;28;20045;-65
2023/09/17 07:05:08;;;;;;;6.53;3.92;;;22.00;68.80;;;23.24;53.12;97520.22;5018465;28;20049;-67
2023/09/17 07:07:36;;;;;;;4.97;3.70;;;22.00;68.70;;;23.28;52.78;97526.81;5015451;28;20041;-66
2023/09/17 07:10:05;;;;;;;5.68;4.03;;;22.10;68.10;;;23.32;52.47;97527.97;5012518;28;20064;-66
2023/09/17 07:12:38;;;;;;;10.23;4.55;;;22.10;67.60;;;23.36;52.38;97529.13;5017036;28;20152;-66
2023/09/17 07:15:07;;;;;;;3.78;3.22;;;22.20;67.30;;;23.39;52.08;97526.72;5015586;28;20053;-66
2023/09/17 07:17:35;;;;;;;6.15;3.65;;;22.20;66.80;;;23.44;51.99;97514.31;5017373;28;20046;-66
2023/09/17 07:20:05;;;;;;;5.05;3.25;;;22.30;66.70;;;23.47;52.07;97520.06;5019061;28;20033;-66
2023/09/17 07:22:32;;;;;;;4.53;3.67;;;22.30;66.70;;;23.52;51.90;97524.78;5017716;28;20037;-66
2023/09/17 07:25:00;;;;;;;5.93;3.97;;;22.40;66.30;;;23.54;51.61;97520.72;5041886;28;20063;-66
2023/09/17 07:27:32;;;;;;;4.35;3.95;;;22.40;66.00;;;23.58;51.71;97531.94;5028142;28;20049;-66
2023/09/17 07:30:00;;;;;;;4.50;3.83;;;22.40;66.00;;;23.61;51.70;97531.41;5012859;28;20047;-66
2023/09/17 07:32:28;;;;;;;5.10;3.67;;;22.50;66.20;;;23.65;51.53;97537.19;5018199;28;20400;-66
2023/09/17 07:34:57;;;;;;;5.95;3.88;;;22.50;66.10;;;23.68;51.64;97539.41;5014368;28;20400;-67
2023/09/17 07:37:24;;;;;;;4.45;4.05;;;22.50;66.00;;;23.71;51.54;97538.91;5023432;28;20500;-66
2023/09/17 07:40:08;;;;;;;5.57;4.00;;;22.50;66.10;;;23.75;51.63;97534.66;5030500;28;20045;-66
2023/09/17 07:42:35;;;;;;;4.72;4.20;;;22.60;66.20;;;23.80;51.67;97539.34;5019763;28;20050;-66
2023/09/17 07:45:03;;;;;;;4.57;3.80;;;22.60;66.00;;;23.82;51.39;97535.31;5018038;28;20048;-66
2023/09/17 07:47:31;;;;;;;6.75;3.80;;;22.70;66.10;;;23.87;51.48;97542.72;5018345;28;20050;-66
2023/09/17 07:49:58;;;;;;;5.97;4.72;;;22.70;65.80;;;23.91;51.25;97550.13;5018812;28;20068;-66
2023/09/17 07:52:26;;;;;;;5.65;4.35;;;22.80;65.60;;;23.94;51.05;97557.78;5017854;28;20049;-66
2023/09/17 07:54:54;;;;;;;4.60;3.63;;;22.80;65.30;;;23.98;51.07;97558.94;5014575;28;20042;-66
2023/09/17 07:57:22;;;;;;;5.30;4.32;;;22.90;65.30;;;24.02;50.87;97561.13;5014689;28;20050;-66
2023/09/17 07:59:50;;;;;;;4.32;3.38;;;22.90;65.10;;;24.08;50.86;97554.69;5013992;28;20046;-66
2023/09/17 08:02:17;;;;;;;4.15;3.75;;;22.90;65.00;;;24.12;50.84;97556.69;5014494;28;20042;-65
2023/09/17 08:04:45;;;;;;;5.43;3.97;;;23.00;64.70;;;24.16;50.64;97563.25;5017459;28;20282;-66
2023/09/17 08:07:13;;;;;;;5.57;4.00;;;23.10;64.60;;;24.23;50.57;97559.53;5025977;28;20049;-66
2023/09/17 08:09:41;;;;;;;5.80;4.32;;;23.10;64.40;;;24.29;50.60;97555.81;5015249;28;20037;-66
2023/09/17 08:12:10;;;;;;;5.78;4.07;;;23.20;64.30;;;24.32;50.04;97569.72;5012491;28;20497;-64
2023/09/17 08:14:47;;;;;;;4.35;3.45;;;23.20;63.50;;;24.36;49.90;97568.16;5016807;28;20453;-65
2023/09/17 08:17:16;;;;;;;5.13;4.20;;;23.20;63.00;;;24.41;50.46;97567.41;5017399;28;20489;-65
2023/09/17 08:19:44;;;;;;;6.13;4.20;;;23.30;63.60;;;24.45;50.09;97568.53;5027313;28;20413;-64
2023/09/17 08:22:11;;;;;;;4.72;3.80;;;23.30;63.50;;;24.50;49.97;97574.03;5042658;28;20049;-65
2023/09/17 08:24:39;;;;;;;5.95;4.38;;;23.40;63.30;;;24.53;49.83;97568.13;5016581;28;20056;-64
2023/09/17 08:27:07;;;;;;;5.15;4.35;;;23.40;63.10;;;24.58;49.75;97575.53;5026061;28;20046;-62
2023/09/17 08:29:34;;;;;;;4.80;3.60;;;23.50;62.80;;;24.62;49.56;97573.13;5016178;28;20045;-62
2023/09/17 08:32:04;;;;;;;5.05;3.45;;;23.50;62.80;;;24.66;49.73;97577.81;5014248;28;20046;-62
2023/09/17 08:34:32;;;;;;;5.85;4.28;;;23.50;62.80;;;24.71;49.09;97577.06;5013823;28;20048;-62
2023/09/17 08:37:00;;;;;;;3.53;3.15;;;23.60;62.00;;;24.75;49.29;97575.47;5018897;28;20578;-62
2023/09/17 08:39:27;;;;;;;4.43;3.05;;;23.60;63.00;;;24.79;49.19;97559.44;5018612;28;20041;-62
2023/09/17 08:41:58;;;;;;;7.10;3.65;;;23.60;62.00;;;24.82;49.04;97558.94;5015400;28;20045;-62
2023/09/17 08:44:30;;;;;;;7.72;3.45;;;23.70;61.40;;;24.87;48.58;97564.44;5015018;28;20057;-62
2023/09/17 08:46:59;;;;;;;7.72;3.10;;;23.80;61.20;;;24.91;48.31;97566.41;5017581;28;20529;-62
2023/09/17 08:49:28;;;;;;;5.35;2.97;;;23.80;60.90;;;24.96;47.70;97571.88;5017486;28;20492;-62
2023/09/17 08:51:57;;;;;;;5.07;2.90;;;23.90;59.90;;;24.99;47.59;97567.84;5017530;28;20045;-64
2023/09/17 08:54:41;;;;;;;5.90;2.97;;;23.90;59.20;;;25.01;47.27;97562.13;5016974;28;20045;-65
2023/09/17 08:57:12;;;;;;;6.20;3.25;;;24.00;57.70;;;25.07;47.48;97561.13;5022996;28;20049;-60
2023/09/17 08:59:48;;;;;;;6.57;3.30;;;24.00;59.10;;;25.13;47.32;97569.06;5019182;28;20049;-68
2023/09/17 09:02:24;;;;;;;8.00;3.78;;;24.10;58.40;;;25.20;47.03;97570.78;5017320;28;20111;-68
2023/09/17 09:04:54;;;;;;;4.75;3.25;;;24.10;58.50;;;25.24;46.87;97570.03;5018990;28;20049;-68
2023/09/17 09:07:22;;;;;;;5.30;3.10;;;24.10;58.40;;;25.31;46.71;97569.81;5018830;28;20049;-69
2023/09/17 09:09:54;;;;;;;4.22;3.20;;;24.20;58.20;;;25.37;46.05;97562.53;5014016;28;20424;-67
2023/09/17 09:12:21;;;;;;;5.22;3.00;;;24.30;57.40;;;25.43;46.04;97564.19;5015610;28;20046;-68
2023/09/17 09:14:50;;;;;;;6.45;3.63;;;24.30;57.20;;;25.47;45.55;97559.88;5017651;28;20069;-69
2023/09/17 09:17:18;;;;;;;5.32;3.17;;;24.30;57.00;;;25.51;45.90;97555.53;5016317;28;20038;-67
2023/09/17 09:19:45;;;;;;;5.22;3.42;;;24.40;56.50;;;25.55;45.37;97553.94;5026245;28;20516;-68
2023/09/17 09:22:13;;;;;;;6.30;3.33;;;24.50;56.80;;;25.60;45.94;97558.63;5019479;28;20052;-67
2023/09/17 09:24:46;;;;;;;5.03;3.03;;;24.50;56.80;;;25.67;45.18;97556.50;5018764;28;20392;-66
2023/09/17 09:27:14;;;;;;;6.22;3.13;;;24.60;56.30;;;25.71;44.96;97553.00;5016156;28;20061;-68
2023/09/17 09:29:44;;;;;;;6.78;2.95;;;24.60;55.90;;;25.76;44.74;97557.66;5054694;28;20051;-67
2023/09/17 09:32:13;;;;;;;6.60;2.97;;;24.60;55.70;;;25.78;44.76;97551.94;5014259;28;20049;-68
2023/09/17 09:34:42;;;;;;;6.93;3.45;;;24.70;55.60;;;25.83;44.59;97557.44;5018467;28;20041;-68
2023/09/17 09:37:10;;;;;;;6.28;2.85;;;24.70;55.50;;;25.87;44.32;97548.47;5020865;28;20103;-68
2023/09/17 09:39:41;;;;;;;7.00;3.70;;;24.80;55.00;;;25.94;44.14;97545.56;5022720;28;20060;-69
2023/09/17 09:42:11;;;;;;;4.85;3.00;;;24.80;54.80;;;25.98;44.17;97545.81;5021913;28;20041;-68
2023/09/17 09:44:39;;;;;;;5.53;3.85;;;24.90;54.30;;;26.02;43.75;97539.59;5019939;28;20050;-68
2023/09/17 09:47:07;;;;;;;5.50;3.30;;;24.90;54.30;;;26.05;44.17;97544.50;5022302;28;20050;-68
2023/09/17 09:49:43;;;;;;;5.22;2.88;;;24.90;53.90;;;26.11;43.58;97542.63;5023880;28;20049;-68
2023/09/17 09:52:13;;;;;;;6.93;3.78;;;25.00;52.60;;;26.14;43.27;97533.94;5023483;28;20071;-68
2023/09/17 09:54:42;;;;;;;6.78;3.10;;;25.10;53.20;;;26.19;43.11;97535.88;5022449;28;20034;-68
2023/09/17 09:57:15;;;;;;;4.82;3.17;;;25.10;53.30;;;26.23;43.34;97534.25;5020214;28;20037;-67
2023/09/17 09:59:48;;;;;;;6.60;3.40;;;25.10;52.50;;;26.26;43.19;97531.81;5023292;28;20053;-68
2023/09/17 10:02:20;;;;;;;10.15;3.35;;;25.20;53.80;;;26.30;42.58;97524.72;5020334;28;20128;-68
2023/09/17 10:04:48;;;;;;;5.97;3.20;;;25.30;52.30;;;26.38;42.89;97517.94;5023179;28;20511;-68
2023/09/17 10:07:17;;;;;;;6.25;3.75;;;25.30;52.30;;;26.46;42.16;97522.91;5021244;28;20045;-68
2023/09/17 10:09:46;;;;;;;5.88;3.03;;;25.40;51.70;;;26.50;41.93;97512.25;5022079;28;20068;-68
2023/09/17 10:12:14;;;;;;;10.23;4.47;;;25.40;51.30;;;26.53;42.55;97511.75;5015205;28;20440;-68
2023/09/17 10:14:42;;;;;;;6.60;3.00;;;25.50;51.60;;;26.58;42.23;97511.75;5002052;28;20172;-69
2023/09/17 10:17:11;;;;;;;5.80;2.90;;;25.50;51.30;;;26.62;41.97;97512.06;5018189;28;20056;-68
2023/09/17 10:19:40;;;;;;;5.20;3.13;;;25.60;51.00;;;26.67;41.69;97507.44;5020228;28;20519;-68
2023/09/17 10:22:09;;;;;;;8.32;3.75;;;25.70;50.90;;;26.72;42.01;97506.66;5020778;28;20073;-68
2023/09/17 10:24:39;;;;;;;5.68;3.25;;;25.70;50.90;;;26.79;41.96;97503.66;5019803;28;20053;-68
2023/09/17 10:27:08;;;;;;;5.90;3.20;;;25.70;51.70;;;26.83;41.74;97499.28;5097267;27;20058;-68
2023/09/17 10:29:38;;;;;;;4.55;3.22;;;25.80;50.50;;;26.86;41.62;97501.47;5028046;28;20468;-68